sensor_id;sensor_type;location;lat;lon;timestamp;temperature;humidity
20041;DHT22;10181;48.072;9.884;2023-05-07T00:02:21;11.80;99.90
20041;DHT22;10181;48.072;9.884;2023-05-07T00:04:46;11.70;99.90
20041;DHT22;10181;48.072;9.884;2023-05-07T00:07:12;11.70;99.90
20041;DHT22;10181;48.072;9.884;2023-05-07T00:09:38;11.70;99.90
20041;DHT22;10181;48.072;9.884;2023-05-07T00:12:03;11.70;99.90
20041;DHT22;10181;48.072;9.884;2023-05-07T00:14:29;11.60;99.90
20041;DHT22;10181;48.072;9.884;2023-05-07T00:16:55;11.60;99.90
20041;DHT22;10181;48.072;9.884;2023-05-07T00:19:21;11.50;99.90
20041;DHT22;10181;48.072;9.884;2023-05-07T00:21:46;11.50;99.90
20041;DHT22;10181;48.072;9.884;2023-05-07T00:24:12;11.50;99.90
20041;DHT22;10181;48.072;9.884;2023-05-07T00:26:37;11.50;99.90
20041;DHT22;10181;48.072;9.884;2023-05-07T00:29:03;11.50;99.90
20041;DHT22;10181;48.072;9.884;2023-05-07T00:31:29;11.50;99.90
20041;DHT22;10181;48.072;9.884;2023-05-07T00:33:54;11.40;99.90
20041;DHT22;10181;48.072;9.884;2023-05-07T00:36:20;11.30;99.90
20041;DHT22;10181;48.072;9.884;2023-05-07T00:38:45;11.20;99.90
20041;DHT22;10181;48.072;9.884;2023-05-07T00:41:11;11.20;99.90
20041;DHT22;10181;48.072;9.884;2023-05-07T00:43:37;11.20;99.90
20041;DHT22;10181;48.072;9.884;2023-05-07T00:46:03;11.20;99.90
20041;DHT22;10181;48.072;9.884;2023-05-07T00:48:28;11.20;99.90
20041;DHT22;10181;48.072;9.884;2023-05-07T00:50:56;11.20;99.90
20041;DHT22;10181;48.072;9.884;2023-05-07T00:53:22;11.10;99.90
20041;DHT22;10181;48.072;9.884;2023-05-07T00:55:48;11.00;99.90
20041;DHT22;10181;48.072;9.884;2023-05-07T00:58:13;11.00;99.90
20041;DHT22;10181;48.072;9.884;2023-05-07T01:00:39;11.00;99.90
20041;DHT22;10181;48.072;9.884;2023-05-07T01:03:05;11.00;99.90
20041;DHT22;10181;48.072;9.884;2023-05-07T01:05:31;11.00;99.90
20041;DHT22;10181;48.072;9.884;2023-05-07T01:07:58;10.90;99.90
20041;DHT22;10181;48.072;9.884;2023-05-07T01:10:24;10.90;99.90
20041;DHT22;10181;48.072;9.884;2023-05-07T01:12:50;10.90;99.90
20041;DHT22;10181;48.072;9.884;2023-05-07T01:15:16;10.80;99.90
20041;DHT22;10181;48.072;9.884;2023-05-07T01:17:43;10.80;99.90
20041;DHT22;10181;48.072;9.884;2023-05-07T01:20:09;10.80;99.90
20041;DHT22;10181;48.072;9.884;2023-05-07T01:22:38;10.80;99.90
20041;DHT22;10181;48.072;9.884;2023-05-07T01:25:05;10.80;99.90
20041;DHT22;10181;48.072;9.884;2023-05-07T01:27:31;10.70;99.90
20041;DHT22;10181;48.072;9.884;2023-05-07T01:29:59;10.70;99.90
20041;DHT22;10181;48.072;9.884;2023-05-07T01:34:55;10.70;99.90
20041;DHT22;10181;48.072;9.884;2023-05-07T01:37:22;10.70;99.90
20041;DHT22;10181;48.072;9.884;2023-05-07T01:39:49;10.70;99.90
20041;DHT22;10181;48.072;9.884;2023-05-07T01:42:14;10.70;99.90
20041;DHT22;10181;48.072;9.884;2023-05-07T01:44:40;10.80;99.90
20041;DHT22;10181;48.072;9.884;2023-05-07T01:47:06;10.80;99.90
20041;DHT22;10181;48.072;9.884;2023-05-07T01:49:32;10.80;99.90
20041;DHT22;10181;48.072;9.884;2023-05-07T01:51:58;10.80;99.90
20041;DHT22;10181;48.072;9.884;2023-05-07T01:54:27;10.80;99.90
20041;DHT22;10181;48.072;9.884;2023-05-07T01:56:54;10.80;99.90
20041;DHT22;10181;48.072;9.884;2023-05-07T01:59:20;10.70;99.90
20041;DHT22;10181;48.072;9.884;2023-05-07T02:01:46;10.70;99.90
20041;DHT22;10181;48.072;9.884;2023-05-07T02:04:11;10.60;99.90
20041;DHT22;10181;48.072;9.884;2023-05-07T02:06:37;10.60;99.90
20041;DHT22;10181;48.072;9.884;2023-05-07T02:09:02;10.60;99.90
20041;DHT22;10181;48.072;9.884;2023-05-07T02:11:28;10.60;99.90
20041;DHT22;10181;48.072;9.884;2023-05-07T02:13:54;10.60;99.90
20041;DHT22;10181;48.072;9.884;2023-05-07T02:16:19;10.60;99.90
20041;DHT22;10181;48.072;9.884;2023-05-07T02:18:46;10.60;99.90
20041;DHT22;10181;48.072;9.884;2023-05-07T02:21:12;10.60;99.90
20041;DHT22;10181;48.072;9.884;2023-05-07T02:23:37;10.60;99.90
20041;DHT22;10181;48.072;9.884;2023-05-07T02:26:04;10.60;99.90
20041;DHT22;10181;48.072;9.884;2023-05-07T02:28:29;10.60;99.90
20041;DHT22;10181;48.072;9.884;2023-05-07T02:30:55;10.60;99.90
20041;DHT22;10181;48.072;9.884;2023-05-07T02:33:21;10.60;99.90
20041;DHT22;10181;48.072;9.884;2023-05-07T02:35:46;10.60;99.90
20041;DHT22;10181;48.072;9.884;2023-05-07T02:38:12;10.60;99.90
20041;DHT22;10181;48.072;9.884;2023-05-07T02:40:37;10.60;99.90
20041;DHT22;10181;48.072;9.884;2023-05-07T02:43:06;10.50;99.90
20041;DHT22;10181;48.072;9.884;2023-05-07T02:45:32;10.50;99.90
20041;DHT22;10181;48.072;9.884;2023-05-07T02:47:58;10.40;99.90
20041;DHT22;10181;48.072;9.884;2023-05-07T02:50:24;10.40;99.90
20041;DHT22;10181;48.072;9.884;2023-05-07T02:52:50;10.40;99.90
20041;DHT22;10181;48.072;9.884;2023-05-07T02:55:16;10.30;99.90
20041;DHT22;10181;48.072;9.884;2023-05-07T02:57:41;10.30;99.90
20041;DHT22;10181;48.072;9.884;2023-05-07T03:00:15;10.30;99.90
20041;DHT22;10181;48.072;9.884;2023-05-07T03:02:41;10.30;99.90
20041;DHT22;10181;48.072;9.884;2023-05-07T03:05:07;10.20;99.90
20041;DHT22;10181;48.072;9.884;2023-05-07T03:07:33;10.20;99.90
20041;DHT22;10181;48.072;9.884;2023-05-07T03:09:59;10.10;99.90
20041;DHT22;10181;48.072;9.884;2023-05-07T03:12:24;10.00;99.90
20041;DHT22;10181;48.072;9.884;2023-05-07T03:14:50;10.00;99.90
20041;DHT22;10181;48.072;9.884;2023-05-07T03:17:16;10.00;99.90
20041;DHT22;10181;48.072;9.884;2023-05-07T03:19:41;9.90;99.90
20041;DHT22;10181;48.072;9.884;2023-05-07T03:22:07;9.90;99.90
20041;DHT22;10181;48.072;9.884;2023-05-07T03:24:33;9.90;99.90
20041;DHT22;10181;48.072;9.884;2023-05-07T03:26:58;9.80;99.90
20041;DHT22;10181;48.072;9.884;2023-05-07T03:29:24;9.80;99.90
20041;DHT22;10181;48.072;9.884;2023-05-07T03:31:49;9.80;99.90
20041;DHT22;10181;48.072;9.884;2023-05-07T03:34:15;9.70;99.90
20041;DHT22;10181;48.072;9.884;2023-05-07T03:36:42;9.70;99.90
20041;DHT22;10181;48.072;9.884;2023-05-07T03:39:08;9.60;99.90
20041;DHT22;10181;48.072;9.884;2023-05-07T03:41:33;9.60;99.90
20041;DHT22;10181;48.072;9.884;2023-05-07T03:43:59;9.50;99.90
20041;DHT22;10181;48.072;9.884;2023-05-07T03:46:25;9.50;99.90
20041;DHT22;10181;48.072;9.884;2023-05-07T03:48:51;9.40;99.90
20041;DHT22;10181;48.072;9.884;2023-05-07T03:51:17;9.30;99.90
20041;DHT22;10181;48.072;9.884;2023-05-07T03:53:43;9.30;99.90
20041;DHT22;10181;48.072;9.884;2023-05-07T03:56:08;9.30;99.90
20041;DHT22;10181;48.072;9.884;2023-05-07T03:58:34;9.30;99.90
20041;DHT22;10181;48.072;9.884;2023-05-07T04:01:00;9.30;99.90
20041;DHT22;10181;48.072;9.884;2023-05-07T04:03:26;9.30;99.90
20041;DHT22;10181;48.072;9.884;2023-05-07T04:05:52;9.30;99.90
20041;DHT22;10181;48.072;9.884;2023-05-07T04:08:17;9.30;99.90
20041;DHT22;10181;48.072;9.884;2023-05-07T04:10:43;9.30;99.90
20041;DHT22;10181;48.072;9.884;2023-05-07T04:13:08;9.30;99.90
20041;DHT22;10181;48.072;9.884;2023-05-07T04:15:35;9.30;99.90
20041;DHT22;10181;48.072;9.884;2023-05-07T04:18:01;9.20;99.90
20041;DHT22;10181;48.072;9.884;2023-05-07T04:20:26;9.10;99.90
20041;DHT22;10181;48.072;9.884;2023-05-07T04:22:52;9.00;99.90
20041;DHT22;10181;48.072;9.884;2023-05-07T04:25:18;9.00;99.90
20041;DHT22;10181;48.072;9.884;2023-05-07T04:27:43;9.00;99.90
20041;DHT22;10181;48.072;9.884;2023-05-07T04:30:09;9.00;99.90
20041;DHT22;10181;48.072;9.884;2023-05-07T04:32:38;9.00;99.90
20041;DHT22;10181;48.072;9.884;2023-05-07T04:35:04;9.10;99.90
20041;DHT22;10181;48.072;9.884;2023-05-07T04:37:32;9.10;99.90
20041;DHT22;10181;48.072;9.884;2023-05-07T04:39:57;9.00;99.90
20041;DHT22;10181;48.072;9.884;2023-05-07T04:42:23;8.90;99.90
20041;DHT22;10181;48.072;9.884;2023-05-07T04:44:52;8.90;99.90
20041;DHT22;10181;48.072;9.884;2023-05-07T04:47:18;8.90;99.90
20041;DHT22;10181;48.072;9.884;2023-05-07T04:49:44;9.00;99.90
20041;DHT22;10181;48.072;9.884;2023-05-07T04:52:09;9.10;99.90
20041;DHT22;10181;48.072;9.884;2023-05-07T04:54:35;9.10;99.90
20041;DHT22;10181;48.072;9.884;2023-05-07T04:57:03;9.20;99.90
20041;DHT22;10181;48.072;9.884;2023-05-07T04:59:28;9.30;99.90
20041;DHT22;10181;48.072;9.884;2023-05-07T05:01:54;9.40;99.90
20041;DHT22;10181;48.072;9.884;2023-05-07T05:04:19;9.50;99.90
20041;DHT22;10181;48.072;9.884;2023-05-07T05:06:45;9.60;99.90
20041;DHT22;10181;48.072;9.884;2023-05-07T05:09:10;9.70;99.90
20041;DHT22;10181;48.072;9.884;2023-05-07T05:11:36;9.80;99.90
20041;DHT22;10181;48.072;9.884;2023-05-07T05:14:02;9.80;99.90
20041;DHT22;10181;48.072;9.884;2023-05-07T05:16:27;9.90;99.90
20041;DHT22;10181;48.072;9.884;2023-05-07T05:18:53;10.10;99.90
20041;DHT22;10181;48.072;9.884;2023-05-07T05:21:20;10.20;99.90
20041;DHT22;10181;48.072;9.884;2023-05-07T05:23:46;10.30;99.90
20041;DHT22;10181;48.072;9.884;2023-05-07T05:26:12;10.40;99.90
20041;DHT22;10181;48.072;9.884;2023-05-07T05:28:37;10.60;99.90
20041;DHT22;10181;48.072;9.884;2023-05-07T05:31:04;10.70;99.90
20041;DHT22;10181;48.072;9.884;2023-05-07T05:33:30;10.70;99.90
20041;DHT22;10181;48.072;9.884;2023-05-07T05:35:55;10.80;99.90
20041;DHT22;10181;48.072;9.884;2023-05-07T05:38:21;10.80;99.90
20041;DHT22;10181;48.072;9.884;2023-05-07T05:40:47;10.90;99.90
20041;DHT22;10181;48.072;9.884;2023-05-07T05:43:13;10.90;99.90
20041;DHT22;10181;48.072;9.884;2023-05-07T05:45:39;11.00;99.90
20041;DHT22;10181;48.072;9.884;2023-05-07T05:48:05;11.10;99.90
20041;DHT22;10181;48.072;9.884;2023-05-07T05:50:31;11.10;99.90
20041;DHT22;10181;48.072;9.884;2023-05-07T05:52:57;11.20;99.90
20041;DHT22;10181;48.072;9.884;2023-05-07T05:55:23;11.30;99.90
20041;DHT22;10181;48.072;9.884;2023-05-07T05:57:49;11.50;99.90
20041;DHT22;10181;48.072;9.884;2023-05-07T06:00:16;11.60;99.90
20041;DHT22;10181;48.072;9.884;2023-05-07T06:02:41;11.80;99.90
20041;DHT22;10181;48.072;9.884;2023-05-07T06:05:08;12.00;99.90
20041;DHT22;10181;48.072;9.884;2023-05-07T06:07:34;12.10;99.90
20041;DHT22;10181;48.072;9.884;2023-05-07T06:10:00;12.20;99.90
20041;DHT22;10181;48.072;9.884;2023-05-07T06:12:26;12.30;99.90
20041;DHT22;10181;48.072;9.884;2023-05-07T06:14:52;12.30;99.90
20041;DHT22;10181;48.072;9.884;2023-05-07T06:17:18;12.40;99.90
20041;DHT22;10181;48.072;9.884;2023-05-07T06:19:43;12.60;99.90
20041;DHT22;10181;48.072;9.884;2023-05-07T06:22:09;12.70;99.90
20041;DHT22;10181;48.072;9.884;2023-05-07T06:24:35;12.90;99.90
20041;DHT22;10181;48.072;9.884;2023-05-07T06:27:00;13.00;99.90
20041;DHT22;10181;48.072;9.884;2023-05-07T06:29:26;13.20;99.90
20041;DHT22;10181;48.072;9.884;2023-05-07T06:31:53;13.30;99.90
20041;DHT22;10181;48.072;9.884;2023-05-07T06:34:19;13.40;99.90
20041;DHT22;10181;48.072;9.884;2023-05-07T06:36:45;13.50;99.90
20041;DHT22;10181;48.072;9.884;2023-05-07T06:39:10;13.70;99.90
20041;DHT22;10181;48.072;9.884;2023-05-07T06:41:36;13.90;99.90
20041;DHT22;10181;48.072;9.884;2023-05-07T06:44:02;14.10;99.90
20041;DHT22;10181;48.072;9.884;2023-05-07T06:46:28;14.30;99.90
20041;DHT22;10181;48.072;9.884;2023-05-07T06:48:54;14.40;99.90
20041;DHT22;10181;48.072;9.884;2023-05-07T06:51:20;14.60;99.90
20041;DHT22;10181;48.072;9.884;2023-05-07T06:53:45;14.70;99.90
20041;DHT22;10181;48.072;9.884;2023-05-07T06:56:11;14.90;99.90
20041;DHT22;10181;48.072;9.884;2023-05-07T06:58:37;15.10;99.90
20041;DHT22;10181;48.072;9.884;2023-05-07T07:01:03;15.30;99.90
20041;DHT22;10181;48.072;9.884;2023-05-07T07:03:28;15.40;99.90
20041;DHT22;10181;48.072;9.884;2023-05-07T07:05:54;15.60;99.90
20041;DHT22;10181;48.072;9.884;2023-05-07T07:08:21;15.60;99.90
20041;DHT22;10181;48.072;9.884;2023-05-07T07:10:47;15.80;99.90
20041;DHT22;10181;48.072;9.884;2023-05-07T07:13:13;15.80;99.90
20041;DHT22;10181;48.072;9.884;2023-05-07T07:15:39;15.90;99.90
20041;DHT22;10181;48.072;9.884;2023-05-07T07:18:06;16.00;99.90
20041;DHT22;10181;48.072;9.884;2023-05-07T07:20:32;16.10;99.90
20041;DHT22;10181;48.072;9.884;2023-05-07T07:22:57;16.20;99.90
20041;DHT22;10181;48.072;9.884;2023-05-07T07:25:23;16.30;99.90
20041;DHT22;10181;48.072;9.884;2023-05-07T07:27:49;16.40;99.90
20041;DHT22;10181;48.072;9.884;2023-05-07T07:30:15;16.50;99.90
20041;DHT22;10181;48.072;9.884;2023-05-07T07:32:41;16.60;99.90
20041;DHT22;10181;48.072;9.884;2023-05-07T07:35:06;16.70;99.90
20041;DHT22;10181;48.072;9.884;2023-05-07T07:37:32;16.80;99.90
20041;DHT22;10181;48.072;9.884;2023-05-07T07:39:58;16.90;99.90
20041;DHT22;10181;48.072;9.884;2023-05-07T07:42:23;17.00;99.90
20041;DHT22;10181;48.072;9.884;2023-05-07T07:44:49;17.10;99.90
20041;DHT22;10181;48.072;9.884;2023-05-07T07:47:15;17.20;99.90
20041;DHT22;10181;48.072;9.884;2023-05-07T07:49:40;17.30;99.90
20041;DHT22;10181;48.072;9.884;2023-05-07T07:52:06;17.30;99.90
20041;DHT22;10181;48.072;9.884;2023-05-07T07:54:32;17.40;99.90
20041;DHT22;10181;48.072;9.884;2023-05-07T07:56:58;17.50;99.90
20041;DHT22;10181;48.072;9.884;2023-05-07T07:59:23;17.60;99.90
20041;DHT22;10181;48.072;9.884;2023-05-07T08:01:49;17.60;99.90
20041;DHT22;10181;48.072;9.884;2023-05-07T08:04:15;17.60;99.90
20041;DHT22;10181;48.072;9.884;2023-05-07T08:06:41;17.80;99.90
20041;DHT22;10181;48.072;9.884;2023-05-07T08:09:07;17.80;99.90
20041;DHT22;10181;48.072;9.884;2023-05-07T08:11:33;17.90;99.90
20041;DHT22;10181;48.072;9.884;2023-05-07T08:13:59;17.90;99.90
20041;DHT22;10181;48.072;9.884;2023-05-07T08:16:25;18.10;99.90
20041;DHT22;10181;48.072;9.884;2023-05-07T08:18:51;18.30;99.90
20041;DHT22;10181;48.072;9.884;2023-05-07T08:21:17;18.30;99.90
20041;DHT22;10181;48.072;9.884;2023-05-07T08:23:42;18.40;99.90
20041;DHT22;10181;48.072;9.884;2023-05-07T08:26:08;18.40;99.90
20041;DHT22;10181;48.072;9.884;2023-05-07T08:28:34;18.40;99.90
20041;DHT22;10181;48.072;9.884;2023-05-07T08:31:00;18.40;99.90
20041;DHT22;10181;48.072;9.884;2023-05-07T08:33:26;18.40;99.90
20041;DHT22;10181;48.072;9.884;2023-05-07T08:35:52;18.40;99.90
20041;DHT22;10181;48.072;9.884;2023-05-07T08:38:17;18.40;99.90
20041;DHT22;10181;48.072;9.884;2023-05-07T08:40:43;18.40;99.90
20041;DHT22;10181;48.072;9.884;2023-05-07T08:43:12;18.60;99.90
20041;DHT22;10181;48.072;9.884;2023-05-07T08:45:39;18.60;99.90
20041;DHT22;10181;48.072;9.884;2023-05-07T08:48:14;18.70;99.90
20041;DHT22;10181;48.072;9.884;2023-05-07T08:50:41;18.80;99.90
20041;DHT22;10181;48.072;9.884;2023-05-07T08:53:06;18.80;99.90
20041;DHT22;10181;48.072;9.884;2023-05-07T08:55:32;18.80;99.90
20041;DHT22;10181;48.072;9.884;2023-05-07T08:57:59;18.80;99.90
20041;DHT22;10181;48.072;9.884;2023-05-07T09:00:25;18.90;99.90
20041;DHT22;10181;48.072;9.884;2023-05-07T09:02:51;19.00;99.90
20041;DHT22;10181;48.072;9.884;2023-05-07T09:05:17;19.00;99.90
20041;DHT22;10181;48.072;9.884;2023-05-07T09:07:43;19.00;99.90
20041;DHT22;10181;48.072;9.884;2023-05-07T09:10:08;18.90;99.90
20041;DHT22;10181;48.072;9.884;2023-05-07T09:12:34;18.90;99.90
20041;DHT22;10181;48.072;9.884;2023-05-07T09:15:01;18.80;99.90
20041;DHT22;10181;48.072;9.884;2023-05-07T09:17:28;18.70;99.90
20041;DHT22;10181;48.072;9.884;2023-05-07T09:19:54;18.70;99.90
20041;DHT22;10181;48.072;9.884;2023-05-07T09:22:19;18.50;99.90
20041;DHT22;10181;48.072;9.884;2023-05-07T09:24:49;18.50;99.90
20041;DHT22;10181;48.072;9.884;2023-05-07T09:27:16;18.60;99.90
20041;DHT22;10181;48.072;9.884;2023-05-07T09:29:43;18.90;99.90
20041;DHT22;10181;48.072;9.884;2023-05-07T09:32:09;19.00;99.90
20041;DHT22;10181;48.072;9.884;2023-05-07T09:34:35;19.00;99.90
20041;DHT22;10181;48.072;9.884;2023-05-07T09:37:02;19.20;99.90
20041;DHT22;10181;48.072;9.884;2023-05-07T09:42:10;19.00;99.90
20041;DHT22;10181;48.072;9.884;2023-05-07T09:44:37;19.10;99.90
20041;DHT22;10181;48.072;9.884;2023-05-07T09:47:07;19.20;99.90
20041;DHT22;10181;48.072;9.884;2023-05-07T09:49:38;19.30;99.90
20041;DHT22;10181;48.072;9.884;2023-05-07T09:52:06;19.50;99.90
20041;DHT22;10181;48.072;9.884;2023-05-07T09:54:35;19.60;99.90
20041;DHT22;10181;48.072;9.884;2023-05-07T09:57:04;19.70;99.90
20041;DHT22;10181;48.072;9.884;2023-05-07T09:59:31;19.80;99.90
20041;DHT22;10181;48.072;9.884;2023-05-07T10:01:58;19.90;99.90
20041;DHT22;10181;48.072;9.884;2023-05-07T10:04:25;20.00;99.90
20041;DHT22;10181;48.072;9.884;2023-05-07T10:06:52;20.00;99.90
20041;DHT22;10181;48.072;9.884;2023-05-07T10:09:19;19.90;99.90
20041;DHT22;10181;48.072;9.884;2023-05-07T10:11:45;19.90;99.90
20041;DHT22;10181;48.072;9.884;2023-05-07T10:14:13;20.00;99.90
20041;DHT22;10181;48.072;9.884;2023-05-07T10:16:39;20.10;99.90
20041;DHT22;10181;48.072;9.884;2023-05-07T10:19:07;20.00;99.90
20041;DHT22;10181;48.072;9.884;2023-05-07T10:21:37;20.10;99.90
20041;DHT22;10181;48.072;9.884;2023-05-07T10:24:06;20.20;99.90
20041;DHT22;10181;48.072;9.884;2023-05-07T10:26:40;20.20;99.90
20041;DHT22;10181;48.072;9.884;2023-05-07T10:29:14;20.30;99.90
20041;DHT22;10181;48.072;9.884;2023-05-07T10:34:20;20.70;99.90
20041;DHT22;10181;48.072;9.884;2023-05-07T10:36:48;20.70;99.90
20041;DHT22;10181;48.072;9.884;2023-05-07T10:39:15;20.80;99.90
20041;DHT22;10181;48.072;9.884;2023-05-07T10:41:41;20.90;99.90
20041;DHT22;10181;48.072;9.884;2023-05-07T10:44:06;20.90;99.90
20041;DHT22;10181;48.072;9.884;2023-05-07T10:46:32;20.90;99.90
20041;DHT22;10181;48.072;9.884;2023-05-07T10:51:27;20.90;99.90
20041;DHT22;10181;48.072;9.884;2023-05-07T10:59:37;21.20;99.90
20041;DHT22;10181;48.072;9.884;2023-05-07T11:02:07;21.20;99.90
20041;DHT22;10181;48.072;9.884;2023-05-07T11:04:35;21.10;99.90
20041;DHT22;10181;48.072;9.884;2023-05-07T11:09:58;20.90;99.90
20041;DHT22;10181;48.072;9.884;2023-05-07T11:15:08;21.00;99.90
20041;DHT22;10181;48.072;9.884;2023-05-07T11:17:52;21.00;99.90
20041;DHT22;10181;48.072;9.884;2023-05-07T11:20:18;21.10;99.90
20041;DHT22;10181;48.072;9.884;2023-05-07T11:22:44;21.10;99.90
20041;DHT22;10181;48.072;9.884;2023-05-07T11:25:09;21.20;99.90
20041;DHT22;10181;48.072;9.884;2023-05-07T11:27:36;21.20;99.90
20041;DHT22;10181;48.072;9.884;2023-05-07T11:30:01;21.10;99.90
20041;DHT22;10181;48.072;9.884;2023-05-07T11:32:29;21.10;99.90
20041;DHT22;10181;48.072;9.884;2023-05-07T11:34:56;21.00;99.90
20041;DHT22;10181;48.072;9.884;2023-05-07T11:37:23;21.00;99.90
20041;DHT22;10181;48.072;9.884;2023-05-07T11:39:49;21.00;99.90
20041;DHT22;10181;48.072;9.884;2023-05-07T11:42:30;20.80;99.90
20041;DHT22;10181;48.072;9.884;2023-05-07T11:44:56;20.90;99.90
20041;DHT22;10181;48.072;9.884;2023-05-07T11:47:22;21.00;99.90
20041;DHT22;10181;48.072;9.884;2023-05-07T11:49:48;21.20;99.90
20041;DHT22;10181;48.072;9.884;2023-05-07T11:52:15;21.20;99.90
20041;DHT22;10181;48.072;9.884;2023-05-07T11:54:40;21.40;99.90
20041;DHT22;10181;48.072;9.884;2023-05-07T11:57:06;21.50;99.90
20041;DHT22;10181;48.072;9.884;2023-05-07T11:59:39;21.50;99.90
20041;DHT22;10181;48.072;9.884;2023-05-07T12:02:06;21.50;99.90
20041;DHT22;10181;48.072;9.884;2023-05-07T12:04:32;21.70;99.90
20041;DHT22;10181;48.072;9.884;2023-05-07T12:06:57;21.40;99.90
20041;DHT22;10181;48.072;9.884;2023-05-07T12:09:23;21.40;99.90
20041;DHT22;10181;48.072;9.884;2023-05-07T12:11:49;21.40;99.90
20041;DHT22;10181;48.072;9.884;2023-05-07T12:14:16;21.40;99.90
20041;DHT22;10181;48.072;9.884;2023-05-07T12:16:42;21.50;99.90
20041;DHT22;10181;48.072;9.884;2023-05-07T12:19:08;21.60;99.90
20041;DHT22;10181;48.072;9.884;2023-05-07T12:21:38;21.80;99.90
20041;DHT22;10181;48.072;9.884;2023-05-07T12:24:04;22.00;99.90
20041;DHT22;10181;48.072;9.884;2023-05-07T12:26:30;22.20;99.90
20041;DHT22;10181;48.072;9.884;2023-05-07T12:28:57;22.30;99.90
20041;DHT22;10181;48.072;9.884;2023-05-07T12:31:25;22.00;99.90
20041;DHT22;10181;48.072;9.884;2023-05-07T12:33:50;21.90;99.90
20041;DHT22;10181;48.072;9.884;2023-05-07T12:36:16;22.10;99.90
20041;DHT22;10181;48.072;9.884;2023-05-07T12:38:42;22.00;99.90
20041;DHT22;10181;48.072;9.884;2023-05-07T12:41:09;21.90;99.90
20041;DHT22;10181;48.072;9.884;2023-05-07T12:43:36;21.70;99.90
20041;DHT22;10181;48.072;9.884;2023-05-07T12:46:05;21.70;99.90
20041;DHT22;10181;48.072;9.884;2023-05-07T12:48:31;21.80;99.90
20041;DHT22;10181;48.072;9.884;2023-05-07T12:50:59;22.00;99.90
20041;DHT22;10181;48.072;9.884;2023-05-07T12:53:26;22.10;99.90
20041;DHT22;10181;48.072;9.884;2023-05-07T12:55:56;22.10;99.90
20041;DHT22;10181;48.072;9.884;2023-05-07T12:58:33;22.10;99.90
20041;DHT22;10181;48.072;9.884;2023-05-07T13:01:00;22.30;99.90
20041;DHT22;10181;48.072;9.884;2023-05-07T13:03:28;22.30;99.90
20041;DHT22;10181;48.072;9.884;2023-05-07T13:05:56;22.40;99.90
20041;DHT22;10181;48.072;9.884;2023-05-07T13:08:30;22.50;99.90
20041;DHT22;10181;48.072;9.884;2023-05-07T13:10:57;22.50;99.90
20041;DHT22;10181;48.072;9.884;2023-05-07T13:13:23;22.60;99.90
20041;DHT22;10181;48.072;9.884;2023-05-07T13:15:48;22.60;99.90
20041;DHT22;10181;48.072;9.884;2023-05-07T13:18:14;22.60;99.90
20041;DHT22;10181;48.072;9.884;2023-05-07T13:20:40;22.60;99.90
20041;DHT22;10181;48.072;9.884;2023-05-07T13:23:06;22.40;99.90
20041;DHT22;10181;48.072;9.884;2023-05-07T13:25:31;22.40;99.90
20041;DHT22;10181;48.072;9.884;2023-05-07T13:27:57;22.30;99.90
20041;DHT22;10181;48.072;9.884;2023-05-07T13:30:23;22.20;99.90
20041;DHT22;10181;48.072;9.884;2023-05-07T13:32:49;22.20;99.90
20041;DHT22;10181;48.072;9.884;2023-05-07T13:35:16;21.90;99.90
20041;DHT22;10181;48.072;9.884;2023-05-07T13:37:41;21.70;99.90
20041;DHT22;10181;48.072;9.884;2023-05-07T13:40:07;21.60;99.90
20041;DHT22;10181;48.072;9.884;2023-05-07T13:42:33;21.50;99.90
20041;DHT22;10181;48.072;9.884;2023-05-07T13:44:59;21.40;99.90
20041;DHT22;10181;48.072;9.884;2023-05-07T13:47:25;21.30;99.90
20041;DHT22;10181;48.072;9.884;2023-05-07T13:49:51;21.30;99.90
20041;DHT22;10181;48.072;9.884;2023-05-07T13:52:17;21.30;99.90
20041;DHT22;10181;48.072;9.884;2023-05-07T13:54:43;21.30;99.90
20041;DHT22;10181;48.072;9.884;2023-05-07T13:57:08;21.20;99.90
20041;DHT22;10181;48.072;9.884;2023-05-07T13:59:34;21.20;99.90
20041;DHT22;10181;48.072;9.884;2023-05-07T14:02:00;21.30;99.90
20041;DHT22;10181;48.072;9.884;2023-05-07T14:04:25;21.30;99.90
20041;DHT22;10181;48.072;9.884;2023-05-07T14:06:51;21.40;99.90
20041;DHT22;10181;48.072;9.884;2023-05-07T14:09:17;21.40;99.90
20041;DHT22;10181;48.072;9.884;2023-05-07T14:11:42;21.50;99.90
20041;DHT22;10181;48.072;9.884;2023-05-07T14:14:08;21.50;99.90
20041;DHT22;10181;48.072;9.884;2023-05-07T14:16:36;21.70;99.90
20041;DHT22;10181;48.072;9.884;2023-05-07T14:19:02;21.70;99.90
20041;DHT22;10181;48.072;9.884;2023-05-07T14:21:27;21.80;99.90
20041;DHT22;10181;48.072;9.884;2023-05-07T14:23:53;21.70;99.90
20041;DHT22;10181;48.072;9.884;2023-05-07T14:26:19;21.70;99.90
20041;DHT22;10181;48.072;9.884;2023-05-07T14:28:45;21.60;99.90
20041;DHT22;10181;48.072;9.884;2023-05-07T14:31:12;21.60;99.90
20041;DHT22;10181;48.072;9.884;2023-05-07T14:33:38;21.50;99.90
20041;DHT22;10181;48.072;9.884;2023-05-07T14:36:03;21.50;99.90
20041;DHT22;10181;48.072;9.884;2023-05-07T14:38:30;21.40;99.90
20041;DHT22;10181;48.072;9.884;2023-05-07T14:40:55;21.40;99.90
20041;DHT22;10181;48.072;9.884;2023-05-07T14:43:22;21.30;99.90
20041;DHT22;10181;48.072;9.884;2023-05-07T14:45:47;21.20;99.90
20041;DHT22;10181;48.072;9.884;2023-05-07T14:48:13;21.00;99.90
20041;DHT22;10181;48.072;9.884;2023-05-07T14:50:41;20.90;99.90
20041;DHT22;10181;48.072;9.884;2023-05-07T14:53:07;20.80;99.90
20041;DHT22;10181;48.072;9.884;2023-05-07T14:55:34;20.70;99.90
20041;DHT22;10181;48.072;9.884;2023-05-07T14:58:00;20.50;99.90
20041;DHT22;10181;48.072;9.884;2023-05-07T15:00:25;20.40;99.90
20041;DHT22;10181;48.072;9.884;2023-05-07T15:02:51;20.20;99.90
20041;DHT22;10181;48.072;9.884;2023-05-07T15:05:17;20.10;99.90
20041;DHT22;10181;48.072;9.884;2023-05-07T15:07:44;19.90;99.90
20041;DHT22;10181;48.072;9.884;2023-05-07T15:10:10;19.80;99.90
20041;DHT22;10181;48.072;9.884;2023-05-07T15:12:36;19.60;99.90
20041;DHT22;10181;48.072;9.884;2023-05-07T15:15:02;19.50;99.90
20041;DHT22;10181;48.072;9.884;2023-05-07T15:17:27;19.30;99.90
20041;DHT22;10181;48.072;9.884;2023-05-07T15:19:53;18.90;99.90
20041;DHT22;10181;48.072;9.884;2023-05-07T15:22:19;18.50;99.90
20041;DHT22;10181;48.072;9.884;2023-05-07T15:24:46;17.80;99.90
20041;DHT22;10181;48.072;9.884;2023-05-07T15:27:12;17.00;99.90
20041;DHT22;10181;48.072;9.884;2023-05-07T15:29:38;16.00;99.90
20041;DHT22;10181;48.072;9.884;2023-05-07T15:32:03;14.90;99.90
20041;DHT22;10181;48.072;9.884;2023-05-07T15:34:29;14.00;99.90
20041;DHT22;10181;48.072;9.884;2023-05-07T15:36:56;13.10;99.90
20041;DHT22;10181;48.072;9.884;2023-05-07T15:39:22;12.50;99.90
20041;DHT22;10181;48.072;9.884;2023-05-07T15:41:48;12.20;99.90
20041;DHT22;10181;48.072;9.884;2023-05-07T15:44:13;12.00;99.90
20041;DHT22;10181;48.072;9.884;2023-05-07T15:46:39;11.90;99.90
20041;DHT22;10181;48.072;9.884;2023-05-07T15:49:05;11.90;99.90